Tishomingo, OK (73460)

7:00 PM CDT on August 01, 2014 (GMT -0500)
Dickson Volunteer Fire Department (KOKARDMO11) Elev 866 ft | 34.19 °N, 97.00 °W | Change Station

Current weather conditions updated 4 minutes ago

Clear
Clear
78.0 °F
Feels Like 80 °F
N
0.0
Wind Variable Wind from SE
Gusts 7.0 mph

Tomorrow is forecast to be Much Warmer than today.

Today
High -- | Low -- °F
--% Chance of Precip.
Yesterday
High -- | Low -- °F
Precip. -- in
6:37 AM 8:27 PM
Waxing Crescent, 30% visible
Pressure 30.02 in
Visibility 10.0 miles
Clouds Clear
Heat Index 80 °F
Dew Point 67 °F
Humidity 70%
Rainfall 0.00 in
Snow Depth Not available.
UV 1 out of 12
Pollen 4.20 out of 12
Air Quality Not available.
Flu Activity Not available.
METAR KADM 012355Z 11003KT 10SM SKC 27/19 A3002

More Conditions Fewer Conditions

Pressure 30.02 in
Visibility 10.0 miles
Clouds Clear
Heat Index 80 °F
Dew Point 67 °F
Humidity 70%
Rainfall 0.00 in
Snow Depth Not available.
UV 1 out of 12
Pollen 4.20 out of 12
Air Quality Not available.
Flu Activity Not available.
METAR KADM 012355Z 11003KT 10SM SKC 27/19 A3002

More Conditions Fewer Conditions

10-Day Weather Forecast

Almanac

Astronomy

Aug. 01, 2014 Rise Set
Actual Time 6:37 AM CDT 8:27 PM CDT
Civil Twilight 6:10 AM CDT 8:55 PM CDT
Nautical Twilight 5:36 AM CDT 9:28 PM CDT
Astronomical Twilight 5:01 AM CDT 10:03 PM CDT
Moon 11:46 AM CDT (8/1) 11:30 PM CDT (8/1)
Length of Visible Light 14h 45m
Length of Day
13h 50m
Tomorrow will be 1m 36s shorter.
Waxing Crescent, 30% of the Moon is Illuminated
Today
Waxing Crescent
Aug 3
First Quarter
Aug 10
Full
Aug 17
Last Quarter
Aug 25
New

Today's Extremes

State Highs State Lows

Community

WunderPhotos

Upload Photos

1,739,763 photos uploaded!

Nearby

Snow Depth

Station Depth Elevation
No new snow has been reported.

Earthquake Activity

City Distance Mag. Time & Date
Yale, Oklahoma 132 miles 3.2 5:19 PM CDT
2014-07-27
Minimum magnitude displayed is 2.5.

Coastal Water Temperatures

Place Temperature
No Stations Reporting

Nearby Weather Stations

Station Location Temp. Heat Index Dew Point Humidity Wind Precip. Elev Updated Type
Dickson Volunteer Fire Department, Ardmore, OK 78.0 °F 80 °F 67 °F 70% SE  at  0.0 mph 0.00 in / hr 866 ft 6:55 PM CDT Normal
Ridgemont Estate, Durant, OK 79.0 °F 82 °F 70 °F 73% SE  at  2.2 mph - / hr 689 ft 6:52 PM CDT Normal
MesoWest CALERA , Caddo, OK 77 °F 75 °F - - North  at  - 0.00 in / hr 641 ft 5:45 PM CDT MADIS
Willifa Woods, Cartwright, OK 79.7 °F 83 °F 70 °F 72% East  at  1.1 mph - / hr 686 ft 6:47 PM CDT Normal

Show More Stations Show Fewer Stations